Dortmund, Germany

12:40 AM CEST on August 30, 2014 (GMT +0200)
Asseln | Change Station
CLOSE
Current Station
Personal Weather Station
Location: Dortmund, NORDRHEIN-WESTFALEN
Elevation: 295 ft
Nearby Weather Stations

Elev 295 ft 51.52 °N, 7.59 °E | Updated 14 seconds ago

Clear
Clear
62.2 °F
Feels Like 62.2 °F
N
0.0
Wind Variable Wind from WNW
Gusts 0.0 mph

Today
High -- | Low -- °F
--% Chance of Precip.
Yesterday
High -- | Low -- °F
Precip. -- in
6:38 AM 8:20 PM
Waxing Crescent, 17% visible
Pressure 30.01 in
Visibility -9999.0 miles
Clouds
Dew Point 55 °F
Humidity 76%
Rainfall 0.00 in
Snow Depth Not available.
UV 0.0 out of 12
Pollen Not available.
Air Quality Not available.
Flu Activity Not available.
METAR EDDL 292220Z 22009KT CAVOK 16/12 Q1016 NOSIG

More Conditions Fewer Conditions

Pressure 30.01 in
Visibility -9999.0 miles
Clouds
Dew Point 55 °F
Humidity 76%
Rainfall 0.00 in
Snow Depth Not available.
UV 0.0 out of 12
Pollen Not available.
Air Quality Not available.
Flu Activity Not available.
METAR EDDL 292220Z 22009KT CAVOK 16/12 Q1016 NOSIG

More Conditions Fewer Conditions

10-Day Weather Forecast

Almanac

Astronomy

Aug. 30, 2014 Rise Set
Actual Time 6:38 AM CEST 8:20 PM CEST
Civil Twilight 6:03 AM CEST 8:55 PM CEST
Nautical Twilight 5:19 AM CEST 9:38 PM CEST
Astronomical Twilight 4:31 AM CEST 10:26 PM CEST
Moon 11:46 AM CEST (8/30) 10:06 PM CEST (8/30)
Length of Visible Light 14h 52m
Length of Day
13h 42m
Tomorrow will be 3m 49s shorter.
Waxing Crescent, 17% of the Moon is Illuminated
Aug 29
Waxing Crescent
Sep 2
First Quarter
Sep 8
Full
Sep 15
Last Quarter
Sep 24
New

Yesterday's Extremes

Country Highs Country Lows

Community

WunderPhotos

Upload Photos

1,748,363 photos uploaded!

Nearby

Snow Depth

Not available.

Earthquake Activity

City Distance Mag. Time & Date
No recent earthquake activity has been reported nearby.
Minimum magnitude displayed is 2.5.

Coastal Water Temperatures

Place Temperature
No Stations Reporting

Nearby Weather Stations